Ms Folla 2 — LLPD — position and weather

sailwx.info

Track history (hours):
 
Tides and Currents Weather Stations Pressure Air Temp Water Temp Dewpoint Dewpoint Depression Visibility Wind Speed Wind Dir Waves Ship Positions

Ms Folla 2

Last reported at 2017-Mar-29 20:33 UTC. Time now 2017-Mar-29 21:11 UTC.
Position N 64°47' E 011°05'.

Length 52 m; draft 5.5 m.

Type: Cargo ship. MMSI: 258253000.

Date/timePositionNaut miles runAvg speedWind from/ knotsBaromVisibWave heightAir tempDewpointWater temp
2017-Mar-29 20:33N 64°47' E 011°05'1110.7
2017-Mar-29 19:33N 64°55' E 011°22'1111.3
2017-Mar-29 18:33N 65°02' E 011°43'1111.3
2017-Mar-29 17:33N 65°11' E 012°00'10 9.6
2017-Mar-29 16:33N 65°09' E 012°23'3 2.6
2017-Mar-29 15:33N 65°06' E 012°26'0 0.0
2017-Mar-29 14:33N 65°06' E 012°26'2 1.8
2017-Mar-29 13:33N 65°08' E 012°26'9 9.4
2017-Mar-29 12:33N 65°12' E 012°05'1111.4
2017-Mar-29 11:33N 65°04' E 011°45'1111.3
2017-Mar-29 10:33N 64°56' E 011°26'6 5.8
2017-Mar-29 09:33N 64°52' E 011°17'0 0.0
2017-Mar-29 08:33N 64°52' E 011°17'0 0.0
2017-Mar-29 07:33N 64°52' E 011°17'0 0.0
2017-Mar-29 06:33N 64°52' E 011°17'0 0.0
2017-Mar-29 05:33N 64°52' E 011°17'0 0.0
2017-Mar-29 04:33N 64°52' E 011°17'0 0.0
2017-Mar-29 03:33N 64°52' E 011°17'0 0.0
2017-Mar-29 02:33N 64°52' E 011°17'0 0.0
2017-Mar-29 01:33N 64°52' E 011°17'0 0.0
2017-Mar-29 00:33N 64°52' E 011°17'0 0.0
2017-Mar-28 23:33N 64°52' E 011°17'0 0.0
2017-Mar-28 22:33N 64°52' E 011°17'0 0.0
2017-Mar-28 21:33N 64°52' E 011°17'0 0.0
2017-Mar-28 20:33N 64°52' E 011°17'0 0.0
2017-Mar-28 19:33N 64°52' E 011°17'0 0.0
2017-Mar-28 18:33N 64°52' E 011°17'0 0.0
2017-Mar-28 17:33N 64°52' E 011°17'0 0.0
2017-Mar-28 16:33N 64°52' E 011°17'0 0.0
2017-Mar-28 15:33N 64°52' E 011°17'0 0.0
2017-Mar-28 14:33N 64°52' E 011°17'0 0.0
2017-Mar-28 13:33N 64°52' E 011°17'1 1.0
2017-Mar-28 12:33N 64°52' E 011°15'5 5.4
2017-Mar-28 11:33N 64°55' E 011°24'1110.6
2017-Mar-28 10:33N 65°02' E 011°43'1111.0
2017-Mar-28 09:33N 65°12' E 011°53'1111.2
2017-Mar-28 08:33N 65°23' E 012°05'1010.4
2017-Mar-28 07:33N 65°32' E 012°12'1111.2
2017-Mar-28 06:33N 65°44' E 012°17'1111.4
2017-Mar-28 05:33N 65°55' E 012°22'9 9.5
2017-Mar-28 04:33N 66°01' E 012°38'1110.4
2017-Mar-28 03:32N 66°12' E 012°39'1110.9
2017-Mar-28 02:33N 66°23' E 012°40'2 2.5
2017-Mar-28 01:33N 66°23' E 012°34'8 8.0
2017-Mar-28 00:33N 66°27' E 012°50'10 9.9
2017-Mar-27 23:33N 66°36' E 013°04'1010.6
2017-Mar-27 22:33N 66°45' E 013°18'5 4.6
2017-Mar-27 21:33N 66°45' E 013°30'3 3.4
2017-Mar-27 20:33N 66°45' E 013°21'8 7.9
2017-Mar-27 19:33N 66°53' E 013°22'9 9.5
2017-Mar-27 18:33N 66°59' E 013°40'1110.9
2017-Mar-27 17:33N 67°05' E 014°04'0 0.4
2017-Mar-27 16:33N 67°04' E 014°04'6 5.5
2017-Mar-27 15:33N 67°02' E 013°51'1010.2
2017-Mar-27 14:33N 66°56' E 013°29'1010.3
2017-Mar-27 13:33N 66°48' E 013°15'7 6.6
2017-Mar-27 12:33N 66°45' E 013°30'0 0.0
2017-Mar-27 11:33N 66°45' E 013°30'0 0.0
2017-Mar-27 10:33N 66°45' E 013°30'0 0.0
2017-Mar-27 09:33N 66°45' E 013°30'0 0.0
2017-Mar-27 08:33N 66°45' E 013°30'0 0.0
2017-Mar-27 07:33N 66°45' E 013°30'0 0.0
2017-Mar-27 06:33N 66°45' E 013°30'7 6.6
2017-Mar-27 05:33N 66°42' E 013°15'3 3.1
2017-Mar-27 04:33N 66°45' E 013°13'10 9.9
2017-Mar-27 03:33N 66°54' E 013°25'9 9.4
2017-Mar-27 02:33N 67°01' E 013°41'1010.4
2017-Mar-27 01:33N 67°08' E 014°01'10 9.9
2017-Mar-27 00:33N 67°16' E 014°13'1010.1
2017-Mar-26 23:33N 67°25' E 014°27'1010.4
2017-Mar-26 22:33N 67°35' E 014°30'1010.4
2017-Mar-26 21:33N 67°46' E 014°32'10 9.8
2017-Mar-26 20:32N 67°54' E 014°44'9 9.5
2017-Mar-26 19:33N 68°01' E 015°02'10 9.8
2017-Mar-26 18:33N 68°08' E 015°20'10 9.7
2017-Mar-26 17:33N 68°15' E 015°39'10 9.5
2017-Mar-26 16:33N 68°22' E 015°57'1111.4
2017-Mar-26 15:33N 68°32' E 016°11'10 9.9
2017-Mar-26 14:33N 68°37' E 016°34'1010.1
2017-Mar-26 13:33N 68°43' E 016°57'5 5.4
2017-Mar-26 12:33N 68°45' E 017°10'1010.3
2017-Mar-26 11:33N 68°52' E 017°31'5 4.9
2017-Mar-26 10:33N 68°54' E 017°43'8 8.3
2017-Mar-26 09:33N 68°58' E 017°22'9 9.0
2017-Mar-26 08:33N 69°06' E 017°29'9 9.2
2017-Mar-26 07:33N 69°10' E 017°53'9 8.6
2017-Mar-26 06:33N 69°18' E 017°58'10 9.8
2017-Mar-26 05:33N 69°27' E 018°07'9 9.1
2017-Mar-26 04:33N 69°32' E 018°30'1010.0
2017-Mar-26 03:32N 69°37' E 018°55'4 3.8
2017-Mar-26 02:32N 69°41' E 018°59'0 0.2
2017-Mar-26 01:33N 69°41' E 018°59'1 0.5
2017-Mar-26 00:33N 69°40' E 018°59'10 9.9
2017-Mar-25 23:33N 69°33' E 018°40'1111.4
2017-Mar-25 22:33N 69°29' E 018°10'1110.6
2017-Mar-25 21:33N 69°19' E 017°59'7 6.6
2017-Mar-25 20:33N 69°12' E 018°01'1010.4
2017-Mar-25 19:33N 69°07' E 017°36'1111.2
2017-Mar-25 18:32N 68°59' E 017°12'1111.6
2017-Mar-25 17:33N 68°51' E 016°49'6 6.0
2017-Mar-25 16:33N 68°48' E 016°35'3 2.7
2017-Mar-25 15:33N 68°51' E 016°34'9 8.6
2017-Mar-25 14:33N 68°53' E 016°11'7 7.4
2017-Mar-25 13:33N 68°46' E 016°14'5 4.9
2017-Mar-25 12:33N 68°49' E 016°04'1010.4
2017-Mar-25 11:33N 68°59' E 015°54'6 5.6
2017-Mar-25 10:33N 68°58' E 015°39'1111.2
2017-Mar-25 09:33N 68°48' E 015°26'6 5.9
2017-Mar-25 08:33N 68°42' E 015°25'4 3.9
2017-Mar-25 07:33N 68°38' E 015°21'1010.0
2017-Mar-25 06:33N 68°29' E 015°13'1110.9
2017-Mar-25 05:33N 68°19' E 014°59'9 8.6
2017-Mar-25 04:33N 68°14' E 014°41'2 2.3
2017-Mar-25 03:32N 68°14' E 014°35'0 0.0
2017-Mar-25 02:33N 68°14' E 014°35'6 5.8
2017-Mar-25 01:33N 68°11' E 014°22'1010.5
2017-Mar-25 00:33N 68°06' E 013°57'8 8.1
2017-Mar-24 23:33N 68°07' E 013°36'1 1.2
2017-Mar-24 22:33N 68°08' E 013°34'1 0.9
2017-Mar-24 21:33N 68°08' E 013°37'9 9.2
2017-Mar-24 20:33N 67°59' E 013°34'1111.2
2017-Mar-24 19:32N 67°48' E 013°29'1110.7
2017-Mar-24 18:33N 67°37' E 013°23'1110.7
2017-Mar-24 17:33N 67°27' E 013°16'1110.7
2017-Mar-24 16:32N 67°17' E 013°10'1110.8
2017-Mar-24 15:33N 67°06' E 013°03'1111.2
2017-Mar-24 14:33N 66°55' E 012°58'1211.6
2017-Mar-24 13:32N 66°44' E 012°52'1211.6
2017-Mar-24 12:32N 66°32' E 012°47'9 8.8
2017-Mar-24 11:33N 66°24' E 012°50'8 7.7
2017-Mar-24 10:33N 66°17' E 012°40'1211.6
2017-Mar-24 09:33N 66°05' E 012°40'5 4.9
2017-Mar-24 08:33N 66°01' E 012°35'1111.1
2017-Mar-24 07:33N 65°55' E 012°12'6 6.3
2017-Mar-24 06:33N 66°01' E 012°12'1 1.2
2017-Mar-24 05:33N 66°00' E 012°14'0 0.0
2017-Mar-24 04:33N 66°00' E 012°14'1 1.2
2017-Mar-24 03:33N 65°59' E 012°14'5 5.3
2017-Mar-24 02:33N 65°55' E 012°23'1110.9
2017-Mar-24 01:33N 65°44' E 012°18'1110.9
2017-Mar-24 00:33N 65°34' E 012°13'4 4.3
2017-Mar-23 23:33N 65°29' E 012°13'1010.2
2017-Mar-23 22:33N 65°20' E 012°02'1111.0
2017-Mar-23 21:33N 65°10' E 011°51'1110.8
2017-Mar-23 20:33N 65°01' E 011°39'1111.2
2017-Mar-23 19:33N 64°53' E 011°19'9 9.3
2017-Mar-23 18:33N 64°46' E 011°05'9 9.4
2017-Mar-23 17:33N 64°37' E 011°14'9 9.2
2017-Mar-23 16:33N 64°30' E 011°26'3 2.1
2017-Mar-23 15:11N 64°28' E 011°30'0 0.0
2017-Mar-23 14:33N 64°28' E 011°30'0 0.0
2017-Mar-23 13:33N 64°28' E 011°30'0 0.0
2017-Mar-23 12:33N 64°28' E 011°30'0 0.0
2017-Mar-23 11:33N 64°28' E 011°30'0 0.0
2017-Mar-23 10:33N 64°28' E 011°30'0 0.0
2017-Mar-23 09:32N 64°28' E 011°30'0 0.0
2017-Mar-23 08:33N 64°28' E 011°30'0 0.0
2017-Mar-23 07:33N 64°28' E 011°30'0 0.0
2017-Mar-23 06:32N 64°28' E 011°30'0 0.0
2017-Mar-23 05:33N 64°28' E 011°30'0 0.0
2017-Mar-23 04:32N 64°28' E 011°30'0 0.0
2017-Mar-23 03:33N 64°28' E 011°30'0 0.0
2017-Mar-23 02:33N 64°28' E 011°30'0 0.0
2017-Mar-23 01:33N 64°28' E 011°30'0 0.0
2017-Mar-23 00:33N 64°28' E 011°30'0 0.0
2017-Mar-22 23:33N 64°28' E 011°30'0 0.0
2017-Mar-22 22:33N 64°28' E 011°30'0 0.0
2017-Mar-22 21:33N 64°28' E 011°30'0 0.0
2017-Mar-22 20:33N 64°28' E 011°30'0 0.0
2017-Mar-22 19:33N 64°28' E 011°30'0 0.0
2017-Mar-22 18:33N 64°28' E 011°30'0 0.0
2017-Mar-22 17:33N 64°28' E 011°30'0 0.0
2017-Mar-22 16:33N 64°28' E 011°30'0 0.0
2017-Mar-22 15:33N 64°28' E 011°30'0 0.0
2017-Mar-22 14:33N 64°28' E 011°30'0 0.0
2017-Mar-22 13:33N 64°28' E 011°30'4 3.9
2017-Mar-22 12:33N 64°28' E 011°22'1111.5
2017-Mar-22 11:33N 64°36' E 011°01'5 5.1
2017-Mar-22 10:33N 64°32' E 010°52'0 0.5
2017-Mar-22 09:33N 64°33' E 010°52'10 9.5
2017-Mar-22 08:33N 64°42' E 010°56'1010.4
2017-Mar-22 07:33N 64°50' E 011°11'3 2.9
2017-Mar-22 06:33N 64°52' E 011°17'0 0.0
2017-Mar-22 05:33N 64°52' E 011°17'0 0.0
2017-Mar-22 04:33N 64°52' E 011°17'0 0.0
2017-Mar-22 03:33N 64°52' E 011°17'0 0.0
2017-Mar-22 02:33N 64°52' E 011°17'0 0.0
2017-Mar-22 01:33N 64°52' E 011°17'0 0.0
2017-Mar-22 00:33N 64°52' E 011°17'0 0.0
2017-Mar-21 23:33N 64°52' E 011°17'0 0.0
2017-Mar-21 22:33N 64°52' E 011°17'0 0.0
2017-Mar-21 21:33N 64°52' E 011°17'0 0.0
2017-Mar-21 20:33N 64°52' E 011°17'0 0.0
2017-Mar-21 19:33N 64°52' E 011°17'0 0.0
2017-Mar-21 18:33N 64°52' E 011°17'0 0.0
2017-Mar-21 17:33N 64°52' E 011°17'0 0.0
2017-Mar-21 16:33N 64°52' E 011°17'0 0.0
2017-Mar-21 15:33N 64°52' E 011°17'0 0.0
2017-Mar-21 14:33N 64°52' E 011°17'0 0.0
2017-Mar-21 13:33N 64°52' E 011°17'0 0.0
2017-Mar-21 12:33N 64°52' E 011°17'1 1.2
2017-Mar-21 11:33N 64°52' E 011°14'6 5.6
2017-Mar-21 10:33N 64°55' E 011°24'1110.7
2017-Mar-21 09:33N 65°03' E 011°43'8 7.7
2017-Mar-21 08:33N 65°10' E 011°50'1010.3
2017-Mar-21 07:32N 65°19' E 012°00'1010.3
2017-Mar-21 06:33N 65°28' E 012°12'9 9.2
2017-Mar-21 05:33N 65°37' E 012°14'10 9.7
2017-Mar-21 04:32N 65°47' E 012°20'9 9.5
2017-Mar-21 03:33N 65°56' E 012°23'7 7.4
2017-Mar-21 02:33N 65°59' E 012°06'10 9.7
2017-Mar-21 01:33N 66°07' E 012°22'6 6.0
2017-Mar-21 00:33N 66°10' E 012°34'4 4.1
2017-Mar-20 23:33N 66°14' E 012°30'10 9.8
2017-Mar-20 22:33N 66°22' E 012°42'10 9.8
2017-Mar-20 21:33N 66°31' E 012°52'9 8.8
2017-Mar-20 20:33N 66°38' E 013°05'10 9.9
2017-Mar-20 19:33N 66°47' E 013°14'9 9.5
2017-Mar-20 18:33N 66°55' E 013°29'9 9.2
2017-Mar-20 17:33N 67°02' E 013°45'1010.1
2017-Mar-20 16:33N 67°09' E 014°02'10 9.9
2017-Mar-20 15:33N 67°18' E 014°15'10 9.9
2017-Mar-20 14:33N 67°26' E 014°27'10 9.7
2017-Mar-20 13:32N 67°36' E 014°31'9 9.5
2017-Mar-20 12:33N 67°46' E 014°31'10 9.5
2017-Mar-20 11:33N 67°53' E 014°48'1110.4
2017-Mar-20 10:31N 67°55' E 015°16'6 6.4
2017-Mar-20 09:33N 68°01' E 015°17'9 9.0
2017-Mar-20 08:33N 68°10' E 015°26'1010.4
2017-Mar-20 07:33N 68°16' E 015°47'1010.4
2017-Mar-20 06:33N 68°22' E 016°10'1110.8
2017-Mar-20 05:33N 68°26' E 016°38'1111.0
2017-Mar-20 04:32N 68°26' E 017°08'7 6.6
2017-Mar-20 03:33N 68°25' E 017°26'9 8.8
2017-Mar-20 02:33N 68°26' E 017°01'1010.3
2017-Mar-20 01:33N 68°25' E 016°33'1010.4
2017-Mar-20 00:33N 68°23' E 016°06'6 6.2
2017-Mar-19 23:33N 68°29' E 016°07'10 9.7
2017-Mar-19 22:33N 68°34' E 016°30'9 8.7
2017-Mar-19 21:33N 68°41' E 016°41'  
Track history (hours):
 
Tides and Currents Weather Stations Pressure Air Temp Water Temp Dewpoint Dewpoint Depression Visibility Wind Speed Wind Dir Waves Ship Positions

Ms Folla 2

Last reported at 2017-Mar-29 20:33 UTC. Time now 2017-Mar-29 21:11 UTC.
Position N 64°47' E 011°05'.

Length 52 m; draft 5.5 m.

Type: Cargo ship. MMSI: 258253000.

Date/timePositionNaut miles runAvg speedWind from/ knotsBaromVisibWave heightAir tempDewpointWater temp
2017-Mar-29 20:33N 64°47' E 011°05'1110.7
2017-Mar-29 19:33N 64°55' E 011°22'1111.3
2017-Mar-29 18:33N 65°02' E 011°43'1111.3
2017-Mar-29 17:33N 65°11' E 012°00'10 9.6
2017-Mar-29 16:33N 65°09' E 012°23'3 2.6
2017-Mar-29 15:33N 65°06' E 012°26'0 0.0
2017-Mar-29 14:33N 65°06' E 012°26'2 1.8
2017-Mar-29 13:33N 65°08' E 012°26'9 9.4
2017-Mar-29 12:33N 65°12' E 012°05'1111.4
2017-Mar-29 11:33N 65°04' E 011°45'1111.3
2017-Mar-29 10:33N 64°56' E 011°26'6 5.8
2017-Mar-29 09:33N 64°52' E 011°17'0 0.0
2017-Mar-29 08:33N 64°52' E 011°17'0 0.0
2017-Mar-29 07:33N 64°52' E 011°17'0 0.0
2017-Mar-29 06:33N 64°52' E 011°17'0 0.0
2017-Mar-29 05:33N 64°52' E 011°17'0 0.0
2017-Mar-29 04:33N 64°52' E 011°17'0 0.0
2017-Mar-29 03:33N 64°52' E 011°17'0 0.0
2017-Mar-29 02:33N 64°52' E 011°17'0 0.0
2017-Mar-29 01:33N 64°52' E 011°17'0 0.0
2017-Mar-29 00:33N 64°52' E 011°17'0 0.0
2017-Mar-28 23:33N 64°52' E 011°17'0 0.0
2017-Mar-28 22:33N 64°52' E 011°17'0 0.0
2017-Mar-28 21:33N 64°52' E 011°17'0 0.0
2017-Mar-28 20:33N 64°52' E 011°17'0 0.0
2017-Mar-28 19:33N 64°52' E 011°17'0 0.0
2017-Mar-28 18:33N 64°52' E 011°17'0 0.0
2017-Mar-28 17:33N 64°52' E 011°17'0 0.0
2017-Mar-28 16:33N 64°52' E 011°17'0 0.0
2017-Mar-28 15:33N 64°52' E 011°17'0 0.0
2017-Mar-28 14:33N 64°52' E 011°17'0 0.0
2017-Mar-28 13:33N 64°52' E 011°17'1 1.0
2017-Mar-28 12:33N 64°52' E 011°15'5 5.4
2017-Mar-28 11:33N 64°55' E 011°24'1110.6
2017-Mar-28 10:33N 65°02' E 011°43'1111.0
2017-Mar-28 09:33N 65°12' E 011°53'1111.2
2017-Mar-28 08:33N 65°23' E 012°05'1010.4
2017-Mar-28 07:33N 65°32' E 012°12'1111.2
2017-Mar-28 06:33N 65°44' E 012°17'1111.4
2017-Mar-28 05:33N 65°55' E 012°22'9 9.5
2017-Mar-28 04:33N 66°01' E 012°38'1110.4
2017-Mar-28 03:32N 66°12' E 012°39'1110.9
2017-Mar-28 02:33N 66°23' E 012°40'2 2.5
2017-Mar-28 01:33N 66°23' E 012°34'8 8.0
2017-Mar-28 00:33N 66°27' E 012°50'10 9.9
2017-Mar-27 23:33N 66°36' E 013°04'1010.6
2017-Mar-27 22:33N 66°45' E 013°18'5 4.6
2017-Mar-27 21:33N 66°45' E 013°30'3 3.4
2017-Mar-27 20:33N 66°45' E 013°21'8 7.9
2017-Mar-27 19:33N 66°53' E 013°22'9 9.5
2017-Mar-27 18:33N 66°59' E 013°40'1110.9
2017-Mar-27 17:33N 67°05' E 014°04'0 0.4
2017-Mar-27 16:33N 67°04' E 014°04'6 5.5
2017-Mar-27 15:33N 67°02' E 013°51'1010.2
2017-Mar-27 14:33N 66°56' E 013°29'1010.3
2017-Mar-27 13:33N 66°48' E 013°15'7 6.6
2017-Mar-27 12:33N 66°45' E 013°30'0 0.0
2017-Mar-27 11:33N 66°45' E 013°30'0 0.0
2017-Mar-27 10:33N 66°45' E 013°30'0 0.0
2017-Mar-27 09:33N 66°45' E 013°30'0 0.0
2017-Mar-27 08:33N 66°45' E 013°30'0 0.0
2017-Mar-27 07:33N 66°45' E 013°30'0 0.0
2017-Mar-27 06:33N 66°45' E 013°30'7 6.6
2017-Mar-27 05:33N 66°42' E 013°15'3 3.1
2017-Mar-27 04:33N 66°45' E 013°13'10 9.9
2017-Mar-27 03:33N 66°54' E 013°25'9 9.4
2017-Mar-27 02:33N 67°01' E 013°41'1010.4
2017-Mar-27 01:33N 67°08' E 014°01'10 9.9
2017-Mar-27 00:33N 67°16' E 014°13'1010.1
2017-Mar-26 23:33N 67°25' E 014°27'1010.4
2017-Mar-26 22:33N 67°35' E 014°30'1010.4
2017-Mar-26 21:33N 67°46' E 014°32'10 9.8
2017-Mar-26 20:32N 67°54' E 014°44'9 9.5
2017-Mar-26 19:33N 68°01' E 015°02'10 9.8
2017-Mar-26 18:33N 68°08' E 015°20'10 9.7
2017-Mar-26 17:33N 68°15' E 015°39'10 9.5
2017-Mar-26 16:33N 68°22' E 015°57'1111.4
2017-Mar-26 15:33N 68°32' E 016°11'10 9.9
2017-Mar-26 14:33N 68°37' E 016°34'1010.1
2017-Mar-26 13:33N 68°43' E 016°57'5 5.4
2017-Mar-26 12:33N 68°45' E 017°10'1010.3
2017-Mar-26 11:33N 68°52' E 017°31'5 4.9
2017-Mar-26 10:33N 68°54' E 017°43'8 8.3
2017-Mar-26 09:33N 68°58' E 017°22'9 9.0
2017-Mar-26 08:33N 69°06' E 017°29'9 9.2
2017-Mar-26 07:33N 69°10' E 017°53'9 8.6
2017-Mar-26 06:33N 69°18' E 017°58'10 9.8
2017-Mar-26 05:33N 69°27' E 018°07'9 9.1
2017-Mar-26 04:33N 69°32' E 018°30'1010.0
2017-Mar-26 03:32N 69°37' E 018°55'4 3.8
2017-Mar-26 02:32N 69°41' E 018°59'0 0.2
2017-Mar-26 01:33N 69°41' E 018°59'1 0.5
2017-Mar-26 00:33N 69°40' E 018°59'10 9.9
2017-Mar-25 23:33N 69°33' E 018°40'1111.4
2017-Mar-25 22:33N 69°29' E 018°10'1110.6
2017-Mar-25 21:33N 69°19' E 017°59'7 6.6
2017-Mar-25 20:33N 69°12' E 018°01'1010.4
2017-Mar-25 19:33N 69°07' E 017°36'1111.2
2017-Mar-25 18:32N 68°59' E 017°12'1111.6
2017-Mar-25 17:33N 68°51' E 016°49'6 6.0
2017-Mar-25 16:33N 68°48' E 016°35'3 2.7
2017-Mar-25 15:33N 68°51' E 016°34'9 8.6
2017-Mar-25 14:33N 68°53' E 016°11'7 7.4
2017-Mar-25 13:33N 68°46' E 016°14'5 4.9
2017-Mar-25 12:33N 68°49' E 016°04'1010.4
2017-Mar-25 11:33N 68°59' E 015°54'6 5.6
2017-Mar-25 10:33N 68°58' E 015°39'1111.2
2017-Mar-25 09:33N 68°48' E 015°26'6 5.9
2017-Mar-25 08:33N 68°42' E 015°25'4 3.9
2017-Mar-25 07:33N 68°38' E 015°21'1010.0
2017-Mar-25 06:33N 68°29' E 015°13'1110.9
2017-Mar-25 05:33N 68°19' E 014°59'9 8.6
2017-Mar-25 04:33N 68°14' E 014°41'2 2.3
2017-Mar-25 03:32N 68°14' E 014°35'0 0.0
2017-Mar-25 02:33N 68°14' E 014°35'6 5.8
2017-Mar-25 01:33N 68°11' E 014°22'1010.5
2017-Mar-25 00:33N 68°06' E 013°57'8 8.1
2017-Mar-24 23:33N 68°07' E 013°36'1 1.2
2017-Mar-24 22:33N 68°08' E 013°34'1 0.9
2017-Mar-24 21:33N 68°08' E 013°37'9 9.2
2017-Mar-24 20:33N 67°59' E 013°34'1111.2
2017-Mar-24 19:32N 67°48' E 013°29'1110.7
2017-Mar-24 18:33N 67°37' E 013°23'1110.7
2017-Mar-24 17:33N 67°27' E 013°16'1110.7
2017-Mar-24 16:32N 67°17' E 013°10'1110.8
2017-Mar-24 15:33N 67°06' E 013°03'1111.2
2017-Mar-24 14:33N 66°55' E 012°58'1211.6
2017-Mar-24 13:32N 66°44' E 012°52'1211.6
2017-Mar-24 12:32N 66°32' E 012°47'9 8.8
2017-Mar-24 11:33N 66°24' E 012°50'8 7.7
2017-Mar-24 10:33N 66°17' E 012°40'1211.6
2017-Mar-24 09:33N 66°05' E 012°40'5 4.9
2017-Mar-24 08:33N 66°01' E 012°35'1111.1
2017-Mar-24 07:33N 65°55' E 012°12'6 6.3
2017-Mar-24 06:33N 66°01' E 012°12'1 1.2
2017-Mar-24 05:33N 66°00' E 012°14'0 0.0
2017-Mar-24 04:33N 66°00' E 012°14'1 1.2
2017-Mar-24 03:33N 65°59' E 012°14'5 5.3
2017-Mar-24 02:33N 65°55' E 012°23'1110.9
2017-Mar-24 01:33N 65°44' E 012°18'1110.9
2017-Mar-24 00:33N 65°34' E 012°13'4 4.3
2017-Mar-23 23:33N 65°29' E 012°13'1010.2
2017-Mar-23 22:33N 65°20' E 012°02'1111.0
2017-Mar-23 21:33N 65°10' E 011°51'1110.8
2017-Mar-23 20:33N 65°01' E 011°39'1111.2
2017-Mar-23 19:33N 64°53' E 011°19'9 9.3
2017-Mar-23 18:33N 64°46' E 011°05'9 9.4
2017-Mar-23 17:33N 64°37' E 011°14'9 9.2
2017-Mar-23 16:33N 64°30' E 011°26'3 2.1
2017-Mar-23 15:11N 64°28' E 011°30'0 0.0
2017-Mar-23 14:33N 64°28' E 011°30'0 0.0
2017-Mar-23 13:33N 64°28' E 011°30'0 0.0
2017-Mar-23 12:33N 64°28' E 011°30'0 0.0
2017-Mar-23 11:33N 64°28' E 011°30'0 0.0
2017-Mar-23 10:33N 64°28' E 011°30'0 0.0
2017-Mar-23 09:32N 64°28' E 011°30'0 0.0
2017-Mar-23 08:33N 64°28' E 011°30'0 0.0
2017-Mar-23 07:33N 64°28' E 011°30'0 0.0
2017-Mar-23 06:32N 64°28' E 011°30'0 0.0
2017-Mar-23 05:33N 64°28' E 011°30'0 0.0
2017-Mar-23 04:32N 64°28' E 011°30'0 0.0
2017-Mar-23 03:33N 64°28' E 011°30'0 0.0
2017-Mar-23 02:33N 64°28' E 011°30'0 0.0
2017-Mar-23 01:33N 64°28' E 011°30'0 0.0
2017-Mar-23 00:33N 64°28' E 011°30'0 0.0
2017-Mar-22 23:33N 64°28' E 011°30'0 0.0
2017-Mar-22 22:33N 64°28' E 011°30'0 0.0
2017-Mar-22 21:33N 64°28' E 011°30'0 0.0
2017-Mar-22 20:33N 64°28' E 011°30'0 0.0
2017-Mar-22 19:33N 64°28' E 011°30'0 0.0
2017-Mar-22 18:33N 64°28' E 011°30'0 0.0
2017-Mar-22 17:33N 64°28' E 011°30'0 0.0
2017-Mar-22 16:33N 64°28' E 011°30'0 0.0
2017-Mar-22 15:33N 64°28' E 011°30'0 0.0
2017-Mar-22 14:33N 64°28' E 011°30'0 0.0
2017-Mar-22 13:33N 64°28' E 011°30'4 3.9
2017-Mar-22 12:33N 64°28' E 011°22'1111.5
2017-Mar-22 11:33N 64°36' E 011°01'5 5.1
2017-Mar-22 10:33N 64°32' E 010°52'0 0.5
2017-Mar-22 09:33N 64°33' E 010°52'10 9.5
2017-Mar-22 08:33N 64°42' E 010°56'1010.4
2017-Mar-22 07:33N 64°50' E 011°11'3 2.9
2017-Mar-22 06:33N 64°52' E 011°17'0 0.0
2017-Mar-22 05:33N 64°52' E 011°17'0 0.0
2017-Mar-22 04:33N 64°52' E 011°17'0 0.0
2017-Mar-22 03:33N 64°52' E 011°17'0 0.0
2017-Mar-22 02:33N 64°52' E 011°17'0 0.0
2017-Mar-22 01:33N 64°52' E 011°17'0 0.0
2017-Mar-22 00:33N 64°52' E 011°17'0 0.0
2017-Mar-21 23:33N 64°52' E 011°17'0 0.0
2017-Mar-21 22:33N 64°52' E 011°17'0 0.0
2017-Mar-21 21:33N 64°52' E 011°17'0 0.0
2017-Mar-21 20:33N 64°52' E 011°17'0 0.0
2017-Mar-21 19:33N 64°52' E 011°17'0 0.0
2017-Mar-21 18:33N 64°52' E 011°17'0 0.0
2017-Mar-21 17:33N 64°52' E 011°17'0 0.0
2017-Mar-21 16:33N 64°52' E 011°17'0 0.0
2017-Mar-21 15:33N 64°52' E 011°17'0 0.0
2017-Mar-21 14:33N 64°52' E 011°17'0 0.0
2017-Mar-21 13:33N 64°52' E 011°17'0 0.0
2017-Mar-21 12:33N 64°52' E 011°17'1 1.2
2017-Mar-21 11:33N 64°52' E 011°14'6 5.6
2017-Mar-21 10:33N 64°55' E 011°24'1110.7
2017-Mar-21 09:33N 65°03' E 011°43'8 7.7
2017-Mar-21 08:33N 65°10' E 011°50'1010.3
2017-Mar-21 07:32N 65°19' E 012°00'1010.3
2017-Mar-21 06:33N 65°28' E 012°12'9 9.2
2017-Mar-21 05:33N 65°37' E 012°14'10 9.7
2017-Mar-21 04:32N 65°47' E 012°20'9 9.5
2017-Mar-21 03:33N 65°56' E 012°23'7 7.4
2017-Mar-21 02:33N 65°59' E 012°06'10 9.7
2017-Mar-21 01:33N 66°07' E 012°22'6 6.0
2017-Mar-21 00:33N 66°10' E 012°34'4 4.1
2017-Mar-20 23:33N 66°14' E 012°30'10 9.8
2017-Mar-20 22:33N 66°22' E 012°42'10 9.8
2017-Mar-20 21:33N 66°31' E 012°52'9 8.8
2017-Mar-20 20:33N 66°38' E 013°05'10 9.9
2017-Mar-20 19:33N 66°47' E 013°14'9 9.5
2017-Mar-20 18:33N 66°55' E 013°29'9 9.2
2017-Mar-20 17:33N 67°02' E 013°45'1010.1
2017-Mar-20 16:33N 67°09' E 014°02'10 9.9
2017-Mar-20 15:33N 67°18' E 014°15'10 9.9
2017-Mar-20 14:33N 67°26' E 014°27'10 9.7
2017-Mar-20 13:32N 67°36' E 014°31'9 9.5
2017-Mar-20 12:33N 67°46' E 014°31'10 9.5
2017-Mar-20 11:33N 67°53' E 014°48'1110.4
2017-Mar-20 10:31N 67°55' E 015°16'6 6.4
2017-Mar-20 09:33N 68°01' E 015°17'9 9.0
2017-Mar-20 08:33N 68°10' E 015°26'1010.4
2017-Mar-20 07:33N 68°16' E 015°47'1010.4
2017-Mar-20 06:33N 68°22' E 016°10'1110.8
2017-Mar-20 05:33N 68°26' E 016°38'1111.0
2017-Mar-20 04:32N 68°26' E 017°08'7 6.6
2017-Mar-20 03:33N 68°25' E 017°26'9 8.8
2017-Mar-20 02:33N 68°26' E 017°01'1010.3
2017-Mar-20 01:33N 68°25' E 016°33'1010.4
2017-Mar-20 00:33N 68°23' E 016°06'6 6.2
2017-Mar-19 23:33N 68°29' E 016°07'10 9.7
2017-Mar-19 22:33N 68°34' E 016°30'9 8.7
2017-Mar-19 21:33N 68°41' E 016°41'  

Dump ship's entire track history